sensor_id;sensor_type;location;lat;lon;timestamp;temperature;humidity
44447;DHT22;30152;52.066;5.358;2023-04-24T06:55:57;8.60;99.90
44447;DHT22;30152;52.066;5.358;2023-04-24T07:03:14;9.30;99.90
44447;DHT22;30152;52.066;5.358;2023-04-24T07:13:00;8.90;99.90
44447;DHT22;30152;52.066;5.358;2023-04-24T07:17:52;8.60;99.90
44447;DHT22;30152;52.066;5.358;2023-04-24T07:25:10;8.80;99.90
44447;DHT22;30152;52.066;5.358;2023-04-24T07:30:03;8.40;99.90
44447;DHT22;30152;52.066;5.358;2023-04-24T07:34:55;8.90;99.90
44447;DHT22;30152;52.066;5.358;2023-04-24T07:37:21;8.60;99.90
44447;DHT22;30152;52.066;5.358;2023-04-24T07:39:46;8.50;99.90
44447;DHT22;30152;52.066;5.358;2023-04-24T07:44:38;8.70;99.90
44447;DHT22;30152;52.066;5.358;2023-04-24T07:47:03;9.00;99.90
44447;DHT22;30152;52.066;5.358;2023-04-24T07:51:55;8.50;99.90
44447;DHT22;30152;52.066;5.358;2023-04-24T07:54:20;8.80;99.90
44447;DHT22;30152;52.066;5.358;2023-04-24T07:56:46;8.70;99.90
44447;DHT22;30152;52.066;5.358;2023-04-24T07:59:11;8.90;99.90
44447;DHT22;30152;52.066;5.358;2023-04-24T08:06:29;8.90;99.90
44447;DHT22;30152;52.066;5.358;2023-04-24T08:08:59;8.70;99.90
44447;DHT22;30152;52.066;5.358;2023-04-24T08:11:25;8.70;99.90
44447;DHT22;30152;52.066;5.358;2023-04-24T08:13:51;8.90;99.90
44447;DHT22;30152;52.066;5.358;2023-04-24T08:18:42;8.80;99.90
44447;DHT22;30152;52.066;5.358;2023-04-24T08:28:26;8.90;99.90
44447;DHT22;30152;52.066;5.358;2023-04-24T08:30:51;9.00;99.90
44447;DHT22;30152;52.066;5.358;2023-04-24T08:33:21;8.80;99.90
44447;DHT22;30152;52.066;5.358;2023-04-24T08:35:46;8.80;99.90
44447;DHT22;30152;52.066;5.358;2023-04-24T08:38:12;8.80;99.90
44447;DHT22;30152;52.066;5.358;2023-04-24T08:40:37;8.90;99.90
44447;DHT22;30152;52.066;5.358;2023-04-24T08:43:03;8.70;99.90
44447;DHT22;30152;52.066;5.358;2023-04-24T08:45:29;8.80;99.90
44447;DHT22;30152;52.066;5.358;2023-04-24T08:50:21;8.60;99.90
44447;DHT22;30152;52.066;5.358;2023-04-24T08:52:49;8.90;99.90
44447;DHT22;30152;52.066;5.358;2023-04-24T08:55:15;9.00;99.90
44447;DHT22;30152;52.066;5.358;2023-04-24T08:57:44;9.10;99.90
44447;DHT22;30152;52.066;5.358;2023-04-24T09:00:11;8.60;99.90
44447;DHT22;30152;52.066;5.358;2023-04-24T09:02:38;8.50;99.90
44447;DHT22;30152;52.066;5.358;2023-04-24T09:05:06;8.80;99.90
44447;DHT22;30152;52.066;5.358;2023-04-24T09:07:35;8.70;99.90
44447;DHT22;30152;52.066;5.358;2023-04-24T09:10:02;8.70;99.90
44447;DHT22;30152;52.066;5.358;2023-04-24T09:12:28;8.70;99.90
44447;DHT22;30152;52.066;5.358;2023-04-24T09:14:54;6.90;99.90
44447;DHT22;30152;52.066;5.358;2023-04-24T09:17:20;8.60;99.90
44447;DHT22;30152;52.066;5.358;2023-04-24T09:19:48;9.10;99.90
44447;DHT22;30152;52.066;5.358;2023-04-24T09:22:14;8.60;99.90
44447;DHT22;30152;52.066;5.358;2023-04-24T09:24:40;8.30;99.90
44447;DHT22;30152;52.066;5.358;2023-04-24T09:27:07;8.90;99.90
44447;DHT22;30152;52.066;5.358;2023-04-24T09:29:32;8.90;99.90
44447;DHT22;30152;52.066;5.358;2023-04-24T09:31:58;9.90;99.90
44447;DHT22;30152;52.066;5.358;2023-04-24T09:34:26;9.30;99.90
44447;DHT22;30152;52.066;5.358;2023-04-24T09:39:18;9.20;99.90
44447;DHT22;30152;52.066;5.358;2023-04-24T09:41:55;9.20;99.90
44447;DHT22;30152;52.066;5.358;2023-04-24T09:44:24;9.10;99.90
44447;DHT22;30152;52.066;5.358;2023-04-24T09:46:53;9.00;99.90
44447;DHT22;30152;52.066;5.358;2023-04-24T09:49:23;9.40;99.90
44447;DHT22;30152;52.066;5.358;2023-04-24T09:51:49;9.50;99.90
44447;DHT22;30152;52.066;5.358;2023-04-24T09:54:19;9.40;99.90
44447;DHT22;30152;52.066;5.358;2023-04-24T09:56:48;9.30;99.90
44447;DHT22;30152;52.066;5.358;2023-04-24T09:59:15;9.50;99.90
44447;DHT22;30152;52.066;5.358;2023-04-24T10:01:41;9.10;99.90
44447;DHT22;30152;52.066;5.358;2023-04-24T10:04:16;8.90;99.90
44447;DHT22;30152;52.066;5.358;2023-04-24T10:06:42;9.10;99.90
44447;DHT22;30152;52.066;5.358;2023-04-24T10:14:03;9.20;99.90
44447;DHT22;30152;52.066;5.358;2023-04-24T10:16:29;10.30;99.90
44447;DHT22;30152;52.066;5.358;2023-04-24T10:18:59;9.60;99.90
44447;DHT22;30152;52.066;5.358;2023-04-24T10:21:24;9.90;99.90
44447;DHT22;30152;52.066;5.358;2023-04-24T10:23:52;9.40;99.90
44447;DHT22;30152;52.066;5.358;2023-04-24T10:26:19;9.30;99.90
44447;DHT22;30152;52.066;5.358;2023-04-24T10:31:12;9.10;99.90
44447;DHT22;30152;52.066;5.358;2023-04-24T10:33:42;9.40;99.90
44447;DHT22;30152;52.066;5.358;2023-04-24T10:36:10;9.50;99.90
44447;DHT22;30152;52.066;5.358;2023-04-24T10:38:38;9.80;99.90
44447;DHT22;30152;52.066;5.358;2023-04-24T10:41:09;9.80;99.90
44447;DHT22;30152;52.066;5.358;2023-04-24T10:43:39;9.60;99.90
44447;DHT22;30152;52.066;5.358;2023-04-24T10:46:06;9.70;99.90
44447;DHT22;30152;52.066;5.358;2023-04-24T10:48:32;9.90;99.90
44447;DHT22;30152;52.066;5.358;2023-04-24T10:50:58;10.10;99.90
44447;DHT22;30152;52.066;5.358;2023-04-24T10:53:28;9.90;99.90
44447;DHT22;30152;52.066;5.358;2023-04-24T10:56:03;10.10;99.90
44447;DHT22;30152;52.066;5.358;2023-04-24T10:58:44;10.20;99.90
44447;DHT22;30152;52.066;5.358;2023-04-24T11:01:31;10.50;99.90
44447;DHT22;30152;52.066;5.358;2023-04-24T11:03:59;10.00;99.90
44447;DHT22;30152;52.066;5.358;2023-04-24T11:06:35;10.30;99.90
44447;DHT22;30152;52.066;5.358;2023-04-24T11:09:08;11.20;99.90
44447;DHT22;30152;52.066;5.358;2023-04-24T11:11:36;10.30;99.90
44447;DHT22;30152;52.066;5.358;2023-04-24T11:14:14;10.10;99.90
44447;DHT22;30152;52.066;5.358;2023-04-24T11:16:45;10.00;99.90
44447;DHT22;30152;52.066;5.358;2023-04-24T11:24:38;9.60;99.90
44447;DHT22;30152;52.066;5.358;2023-04-24T11:37:29;9.30;99.90
44447;DHT22;30152;52.066;5.358;2023-04-24T11:39:58;9.30;99.90
44447;DHT22;30152;52.066;5.358;2023-04-24T11:42:24;9.40;99.90
44447;DHT22;30152;52.066;5.358;2023-04-24T11:44:52;9.20;99.90
44447;DHT22;30152;52.066;5.358;2023-04-24T11:47:18;9.70;99.90
44447;DHT22;30152;52.066;5.358;2023-04-24T11:52:10;10.10;99.90
44447;DHT22;30152;52.066;5.358;2023-04-24T11:57:05;10.80;99.90
44447;DHT22;30152;52.066;5.358;2023-04-24T11:59:36;11.00;99.90
44447;DHT22;30152;52.066;5.358;2023-04-24T12:02:02;11.20;99.90
44447;DHT22;30152;52.066;5.358;2023-04-24T12:04:38;11.10;99.90
44447;DHT22;30152;52.066;5.358;2023-04-24T12:07:04;10.80;99.90
44447;DHT22;30152;52.066;5.358;2023-04-24T12:09:47;10.70;99.90
44447;DHT22;30152;52.066;5.358;2023-04-24T12:12:14;11.00;99.90
44447;DHT22;30152;52.066;5.358;2023-04-24T12:14:48;10.60;99.90
44447;DHT22;30152;52.066;5.358;2023-04-24T12:17:16;11.20;99.90
44447;DHT22;30152;52.066;5.358;2023-04-24T12:19:48;10.50;99.90
44447;DHT22;30152;52.066;5.358;2023-04-24T12:22:13;10.50;99.90
44447;DHT22;30152;52.066;5.358;2023-04-24T12:24:56;10.90;99.90
44447;DHT22;30152;52.066;5.358;2023-04-24T12:27:22;11.00;99.90
44447;DHT22;30152;52.066;5.358;2023-04-24T12:29:56;11.30;99.90
44447;DHT22;30152;52.066;5.358;2023-04-24T12:34:49;11.10;99.90
44447;DHT22;30152;52.066;5.358;2023-04-24T12:37:15;11.20;99.90
44447;DHT22;30152;52.066;5.358;2023-04-24T12:40:07;10.90;99.90
44447;DHT22;30152;52.066;5.358;2023-04-24T12:45:01;10.60;99.90
44447;DHT22;30152;52.066;5.358;2023-04-24T12:47:28;10.20;99.90
44447;DHT22;30152;52.066;5.358;2023-04-24T12:52:22;10.30;99.90
44447;DHT22;30152;52.066;5.358;2023-04-24T12:54:49;10.40;99.90
44447;DHT22;30152;52.066;5.358;2023-04-24T12:57:15;10.60;99.90
44447;DHT22;30152;52.066;5.358;2023-04-24T12:59:41;10.30;99.90
44447;DHT22;30152;52.066;5.358;2023-04-24T13:02:07;10.70;99.90
44447;DHT22;30152;52.066;5.358;2023-04-24T13:09:26;10.80;99.90
44447;DHT22;30152;52.066;5.358;2023-04-24T13:14:17;10.50;99.90
44447;DHT22;30152;52.066;5.358;2023-04-24T13:21:34;9.90;99.90
44447;DHT22;30152;52.066;5.358;2023-04-24T13:24:00;10.60;99.90
44447;DHT22;30152;52.066;5.358;2023-04-24T13:31:18;11.60;99.90
44447;DHT22;30152;52.066;5.358;2023-04-24T13:33:43;11.80;99.90
44447;DHT22;30152;52.066;5.358;2023-04-24T13:36:09;11.90;99.90
44447;DHT22;30152;52.066;5.358;2023-04-24T13:43:26;11.50;99.90
44447;DHT22;30152;52.066;5.358;2023-04-24T13:48:18;11.50;99.90
44447;DHT22;30152;52.066;5.358;2023-04-24T13:50:44;11.80;99.90
44447;DHT22;30152;52.066;5.358;2023-04-24T13:53:10;12.20;99.90
44447;DHT22;30152;52.066;5.358;2023-04-24T13:55:35;12.10;99.90
44447;DHT22;30152;52.066;5.358;2023-04-24T13:58:01;12.90;99.90
44447;DHT22;30152;52.066;5.358;2023-04-24T14:00:28;11.90;99.90
44447;DHT22;30152;52.066;5.358;2023-04-24T14:05:19;11.40;99.90
44447;DHT22;30152;52.066;5.358;2023-04-24T14:10:12;11.90;99.80
44447;DHT22;30152;52.066;5.358;2023-04-24T14:12:38;12.00;99.90
44447;DHT22;30152;52.066;5.358;2023-04-24T14:15:04;12.20;99.90
44447;DHT22;30152;52.066;5.358;2023-04-24T14:17:30;11.30;99.90
44447;DHT22;30152;52.066;5.358;2023-04-24T14:19:56;11.70;99.90
44447;DHT22;30152;52.066;5.358;2023-04-24T14:22:22;11.00;99.90
44447;DHT22;30152;52.066;5.358;2023-04-24T14:24:47;11.50;99.90
44447;DHT22;30152;52.066;5.358;2023-04-24T14:27:13;11.00;99.90
44447;DHT22;30152;52.066;5.358;2023-04-24T14:29:39;11.20;99.90
44447;DHT22;30152;52.066;5.358;2023-04-24T14:34:30;11.20;99.90
44447;DHT22;30152;52.066;5.358;2023-04-24T14:36:56;12.10;99.90
44447;DHT22;30152;52.066;5.358;2023-04-24T14:39:21;11.90;99.90
44447;DHT22;30152;52.066;5.358;2023-04-24T14:46:39;11.60;99.00
44447;DHT22;30152;52.066;5.358;2023-04-24T14:49:05;12.00;97.70
44447;DHT22;30152;52.066;5.358;2023-04-24T14:53:56;11.20;99.90
44447;DHT22;30152;52.066;5.358;2023-04-24T14:56:23;11.30;99.90
44447;DHT22;30152;52.066;5.358;2023-04-24T15:03:40;11.20;99.90
44447;DHT22;30152;52.066;5.358;2023-04-24T15:06:06;11.00;99.90
44447;DHT22;30152;52.066;5.358;2023-04-24T15:08:32;10.70;99.90
44447;DHT22;30152;52.066;5.358;2023-04-24T15:18:15;10.80;99.90
44447;DHT22;30152;52.066;5.358;2023-04-24T15:23:10;11.20;99.90
44447;DHT22;30152;52.066;5.358;2023-04-24T15:25:36;11.10;99.90
44447;DHT22;30152;52.066;5.358;2023-04-24T15:30:29;10.80;99.90
44447;DHT22;30152;52.066;5.358;2023-04-24T15:35:20;10.50;99.90
44447;DHT22;30152;52.066;5.358;2023-04-24T15:37:46;11.10;99.90
44447;DHT22;30152;52.066;5.358;2023-04-24T15:40:12;11.30;99.90
44447;DHT22;30152;52.066;5.358;2023-04-24T15:42:41;11.30;99.90
44447;DHT22;30152;52.066;5.358;2023-04-24T15:45:07;11.80;99.90
44447;DHT22;30152;52.066;5.358;2023-04-24T15:47:33;10.50;99.90
44447;DHT22;30152;52.066;5.358;2023-04-24T15:49:58;10.80;99.90
44447;DHT22;30152;52.066;5.358;2023-04-24T15:57:16;11.10;99.90
44447;DHT22;30152;52.066;5.358;2023-04-24T15:59:43;11.00;99.90
44447;DHT22;30152;52.066;5.358;2023-04-24T16:02:12;10.90;99.90
44447;DHT22;30152;52.066;5.358;2023-04-24T16:07:09;11.00;97.20
44447;DHT22;30152;52.066;5.358;2023-04-24T16:09:34;11.10;99.70
44447;DHT22;30152;52.066;5.358;2023-04-24T16:12:00;10.90;99.60
44447;DHT22;30152;52.066;5.358;2023-04-24T16:16:52;11.10;99.90
44447;DHT22;30152;52.066;5.358;2023-04-24T16:19:19;10.70;99.40
44447;DHT22;30152;52.066;5.358;2023-04-24T16:21:45;11.20;98.40
44447;DHT22;30152;52.066;5.358;2023-04-24T16:29:02;11.10;99.30
44447;DHT22;30152;52.066;5.358;2023-04-24T16:31:28;10.70;99.00
44447;DHT22;30152;52.066;5.358;2023-04-24T16:36:19;10.90;99.50
44447;DHT22;30152;52.066;5.358;2023-04-24T16:38:46;10.90;99.90
44447;DHT22;30152;52.066;5.358;2023-04-24T16:48:32;10.50;97.90
44447;DHT22;30152;52.066;5.358;2023-04-24T16:55:50;10.10;99.90
44447;DHT22;30152;52.066;5.358;2023-04-24T17:27:28;10.20;99.90
44447;DHT22;30152;52.066;5.358;2023-04-24T17:29:54;10.40;99.90
44447;DHT22;30152;52.066;5.358;2023-04-24T17:59:07;9.50;99.90
44447;DHT22;30152;52.066;5.358;2023-04-24T18:18:36;8.90;99.90
44447;DHT22;30152;52.066;5.358;2023-04-24T18:21:01;8.70;99.90
44447;DHT22;30152;52.066;5.358;2023-04-24T18:23:27;9.00;99.90
44447;DHT22;30152;52.066;5.358;2023-04-24T18:25:53;9.30;99.90
44447;DHT22;30152;52.066;5.358;2023-04-24T18:28:18;8.70;99.90
44447;DHT22;30152;52.066;5.358;2023-04-24T18:35:36;8.50;99.90
44447;DHT22;30152;52.066;5.358;2023-04-24T18:38:02;9.30;99.90
44447;DHT22;30152;52.066;5.358;2023-04-24T18:40:27;9.50;99.90
44447;DHT22;30152;52.066;5.358;2023-04-24T18:42:53;8.80;99.90
44447;DHT22;30152;52.066;5.358;2023-04-24T18:45:19;8.90;99.90
44447;DHT22;30152;52.066;5.358;2023-04-24T18:47:45;8.60;99.90
44447;DHT22;30152;52.066;5.358;2023-04-24T18:50:11;9.00;99.90
44447;DHT22;30152;52.066;5.358;2023-04-24T18:52:38;9.00;99.90
44447;DHT22;30152;52.066;5.358;2023-04-24T18:57:31;8.80;99.90
44447;DHT22;30152;52.066;5.358;2023-04-24T19:02:23;8.50;99.90
44447;DHT22;30152;52.066;5.358;2023-04-24T19:04:48;8.30;99.90
44447;DHT22;30152;52.066;5.358;2023-04-24T19:07:14;9.20;99.90
44447;DHT22;30152;52.066;5.358;2023-04-24T19:09:40;8.40;99.90
44447;DHT22;30152;52.066;5.358;2023-04-24T19:12:05;8.80;99.90
44447;DHT22;30152;52.066;5.358;2023-04-24T19:16:57;8.80;99.90
44447;DHT22;30152;52.066;5.358;2023-04-24T19:19:23;8.00;99.90
44447;DHT22;30152;52.066;5.358;2023-04-24T19:24:16;8.30;99.90
44447;DHT22;30152;52.066;5.358;2023-04-24T19:34:01;8.70;99.90
44447;DHT22;30152;52.066;5.358;2023-04-24T19:36:29;8.50;99.90
44447;DHT22;30152;52.066;5.358;2023-04-24T19:41:21;8.40;99.90
44447;DHT22;30152;52.066;5.358;2023-04-24T19:43:47;8.70;99.90
44447;DHT22;30152;52.066;5.358;2023-04-24T19:46:14;8.70;99.90
44447;DHT22;30152;52.066;5.358;2023-04-24T19:51:05;8.20;99.90
44447;DHT22;30152;52.066;5.358;2023-04-24T19:55:58;8.10;99.90
44447;DHT22;30152;52.066;5.358;2023-04-24T19:58:23;8.00;99.90
44447;DHT22;30152;52.066;5.358;2023-04-24T20:03:16;7.90;99.90
44447;DHT22;30152;52.066;5.358;2023-04-24T20:08:07;8.30;99.90
44447;DHT22;30152;52.066;5.358;2023-04-24T20:15:27;8.30;99.90
44447;DHT22;30152;52.066;5.358;2023-04-24T20:25:11;8.00;99.90
44447;DHT22;30152;52.066;5.358;2023-04-24T20:27:39;8.00;99.90
44447;DHT22;30152;52.066;5.358;2023-04-24T20:30:06;8.10;99.90
44447;DHT22;30152;52.066;5.358;2023-04-24T20:37:29;8.30;99.90
44447;DHT22;30152;52.066;5.358;2023-04-24T20:42:21;7.90;99.90
44447;DHT22;30152;52.066;5.358;2023-04-24T20:47:13;8.20;99.90
44447;DHT22;30152;52.066;5.358;2023-04-24T20:52:05;7.80;99.90
44447;DHT22;30152;52.066;5.358;2023-04-24T21:01:48;8.30;99.90
